sensor_id;sensor_type;location;lat;lon;timestamp;P1;durP1;ratioP1;P2;durP2;ratioP2
35675;SDS011;21790;42.668;23.298;2022-11-22T00:00:58;2.70;;;2.00;;
35675;SDS011;21790;42.668;23.298;2022-11-22T00:03:24;1.90;;;1.58;;
35675;SDS011;21790;42.668;23.298;2022-11-22T00:05:49;2.55;;;1.90;;
35675;SDS011;21790;42.668;23.298;2022-11-22T00:08:15;2.10;;;1.90;;
35675;SDS011;21790;42.668;23.298;2022-11-22T00:10:40;4.35;;;2.15;;
35675;SDS011;21790;42.668;23.298;2022-11-22T00:13:06;2.50;;;1.95;;
35675;SDS011;21790;42.668;23.298;2022-11-22T00:15:31;3.70;;;2.30;;
35675;SDS011;21790;42.668;23.298;2022-11-22T00:17:57;2.15;;;1.77;;
35675;SDS011;21790;42.668;23.298;2022-11-22T00:20:22;3.03;;;2.38;;
35675;SDS011;21790;42.668;23.298;2022-11-22T00:22:48;4.50;;;3.13;;
35675;SDS011;21790;42.668;23.298;2022-11-22T00:25:13;3.58;;;2.45;;
35675;SDS011;21790;42.668;23.298;2022-11-22T00:27:39;2.85;;;2.30;;
35675;SDS011;21790;42.668;23.298;2022-11-22T00:30:05;3.75;;;2.72;;
35675;SDS011;21790;42.668;23.298;2022-11-22T00:32:31;3.35;;;2.58;;
35675;SDS011;21790;42.668;23.298;2022-11-22T00:34:56;3.92;;;2.70;;
35675;SDS011;21790;42.668;23.298;2022-11-22T00:37:22;3.05;;;2.13;;
35675;SDS011;21790;42.668;23.298;2022-11-22T00:39:47;3.50;;;2.63;;
35675;SDS011;21790;42.668;23.298;2022-11-22T00:42:13;3.92;;;2.50;;
35675;SDS011;21790;42.668;23.298;2022-11-22T00:44:39;3.90;;;2.65;;
35675;SDS011;21790;42.668;23.298;2022-11-22T00:47:04;3.40;;;2.63;;
35675;SDS011;21790;42.668;23.298;2022-11-22T00:49:30;6.45;;;3.03;;
35675;SDS011;21790;42.668;23.298;2022-11-22T00:51:55;3.17;;;2.60;;
35675;SDS011;21790;42.668;23.298;2022-11-22T00:54:21;4.43;;;3.30;;
35675;SDS011;21790;42.668;23.298;2022-11-22T00:56:46;6.72;;;3.70;;
35675;SDS011;21790;42.668;23.298;2022-11-22T00:59:12;6.72;;;2.97;;
35675;SDS011;21790;42.668;23.298;2022-11-22T01:01:37;4.15;;;2.95;;
35675;SDS011;21790;42.668;23.298;2022-11-22T01:04:04;5.05;;;2.88;;
35675;SDS011;21790;42.668;23.298;2022-11-22T01:06:29;4.25;;;2.90;;
35675;SDS011;21790;42.668;23.298;2022-11-22T01:08:55;4.55;;;3.08;;
35675;SDS011;21790;42.668;23.298;2022-11-22T01:11:20;4.28;;;2.88;;
35675;SDS011;21790;42.668;23.298;2022-11-22T01:13:47;4.47;;;2.97;;
35675;SDS011;21790;42.668;23.298;2022-11-22T01:16:13;5.82;;;3.75;;
35675;SDS011;21790;42.668;23.298;2022-11-22T01:18:39;10.02;;;3.67;;
35675;SDS011;21790;42.668;23.298;2022-11-22T01:21:05;4.90;;;3.30;;
35675;SDS011;21790;42.668;23.298;2022-11-22T01:23:31;4.90;;;2.95;;
35675;SDS011;21790;42.668;23.298;2022-11-22T01:25:57;6.15;;;3.38;;
35675;SDS011;21790;42.668;23.298;2022-11-22T01:28:22;3.92;;;2.78;;
35675;SDS011;21790;42.668;23.298;2022-11-22T01:30:52;3.92;;;3.03;;
35675;SDS011;21790;42.668;23.298;2022-11-22T01:33:18;4.20;;;2.92;;
35675;SDS011;21790;42.668;23.298;2022-11-22T01:35:45;5.60;;;3.65;;
35675;SDS011;21790;42.668;23.298;2022-11-22T01:38:12;4.50;;;3.30;;
35675;SDS011;21790;42.668;23.298;2022-11-22T01:40:37;4.57;;;2.75;;
35675;SDS011;21790;42.668;23.298;2022-11-22T01:43:05;5.22;;;3.20;;
35675;SDS011;21790;42.668;23.298;2022-11-22T01:45:43;5.68;;;3.92;;
35675;SDS011;21790;42.668;23.298;2022-11-22T01:50:37;6.65;;;3.65;;
35675;SDS011;21790;42.668;23.298;2022-11-22T01:53:13;4.47;;;3.03;;
35675;SDS011;21790;42.668;23.298;2022-11-22T01:55:43;5.38;;;3.55;;
35675;SDS011;21790;42.668;23.298;2022-11-22T01:58:09;5.55;;;3.10;;
35675;SDS011;21790;42.668;23.298;2022-11-22T02:00:37;4.85;;;3.30;;
35675;SDS011;21790;42.668;23.298;2022-11-22T02:03:03;4.53;;;3.40;;
35675;SDS011;21790;42.668;23.298;2022-11-22T02:05:33;3.97;;;2.85;;
35675;SDS011;21790;42.668;23.298;2022-11-22T02:08:16;6.38;;;3.30;;
35675;SDS011;21790;42.668;23.298;2022-11-22T02:10:48;6.20;;;3.22;;
35675;SDS011;21790;42.668;23.298;2022-11-22T02:13:16;3.33;;;2.50;;
35675;SDS011;21790;42.668;23.298;2022-11-22T02:15:45;4.57;;;3.10;;
35675;SDS011;21790;42.668;23.298;2022-11-22T02:18:11;5.32;;;3.40;;
35675;SDS011;21790;42.668;23.298;2022-11-22T02:20:37;6.05;;;3.28;;
35675;SDS011;21790;42.668;23.298;2022-11-22T02:28:07;5.28;;;3.15;;
35675;SDS011;21790;42.668;23.298;2022-11-22T02:30:34;5.43;;;3.15;;
35675;SDS011;21790;42.668;23.298;2022-11-22T02:33:00;4.43;;;3.15;;
35675;SDS011;21790;42.668;23.298;2022-11-22T02:35:26;6.25;;;3.55;;
35675;SDS011;21790;42.668;23.298;2022-11-22T02:37:57;5.65;;;3.67;;
35675;SDS011;21790;42.668;23.298;2022-11-22T02:40:25;7.70;;;3.90;;
35675;SDS011;21790;42.668;23.298;2022-11-22T02:43:02;5.80;;;4.05;;
35675;SDS011;21790;42.668;23.298;2022-11-22T02:45:33;6.22;;;3.40;;
35675;SDS011;21790;42.668;23.298;2022-11-22T02:48:06;4.82;;;3.45;;
35675;SDS011;21790;42.668;23.298;2022-11-22T02:50:33;4.85;;;3.35;;
35675;SDS011;21790;42.668;23.298;2022-11-22T02:52:59;6.18;;;3.33;;
35675;SDS011;21790;42.668;23.298;2022-11-22T02:55:24;4.43;;;2.90;;
35675;SDS011;21790;42.668;23.298;2022-11-22T02:57:50;5.60;;;3.50;;
35675;SDS011;21790;42.668;23.298;2022-11-22T03:00:16;4.53;;;3.30;;
35675;SDS011;21790;42.668;23.298;2022-11-22T03:02:42;5.72;;;3.35;;
35675;SDS011;21790;42.668;23.298;2022-11-22T03:05:08;5.97;;;3.75;;
35675;SDS011;21790;42.668;23.298;2022-11-22T03:07:33;6.68;;;3.42;;
35675;SDS011;21790;42.668;23.298;2022-11-22T03:09:59;5.05;;;3.30;;
35675;SDS011;21790;42.668;23.298;2022-11-22T03:12:24;6.60;;;4.15;;
35675;SDS011;21790;42.668;23.298;2022-11-22T03:14:50;7.45;;;4.07;;
35675;SDS011;21790;42.668;23.298;2022-11-22T03:17:15;6.38;;;3.90;;
35675;SDS011;21790;42.668;23.298;2022-11-22T03:19:41;11.80;;;4.15;;
35675;SDS011;21790;42.668;23.298;2022-11-22T03:22:06;6.07;;;3.95;;
35675;SDS011;21790;42.668;23.298;2022-11-22T03:24:32;6.22;;;4.05;;
35675;SDS011;21790;42.668;23.298;2022-11-22T03:26:57;4.80;;;3.35;;
35675;SDS011;21790;42.668;23.298;2022-11-22T03:29:23;7.10;;;4.20;;
35675;SDS011;21790;42.668;23.298;2022-11-22T03:31:48;7.03;;;4.22;;
35675;SDS011;21790;42.668;23.298;2022-11-22T03:34:14;7.03;;;3.53;;
35675;SDS011;21790;42.668;23.298;2022-11-22T03:36:39;5.93;;;4.20;;
35675;SDS011;21790;42.668;23.298;2022-11-22T03:39:05;7.75;;;4.05;;
35675;SDS011;21790;42.668;23.298;2022-11-22T03:41:31;10.30;;;3.85;;
35675;SDS011;21790;42.668;23.298;2022-11-22T03:43:56;6.70;;;4.28;;
35675;SDS011;21790;42.668;23.298;2022-11-22T03:46:22;7.60;;;4.93;;
35675;SDS011;21790;42.668;23.298;2022-11-22T03:48:48;6.05;;;3.42;;
35675;SDS011;21790;42.668;23.298;2022-11-22T03:51:13;6.32;;;4.00;;
35675;SDS011;21790;42.668;23.298;2022-11-22T03:53:39;8.98;;;4.43;;
35675;SDS011;21790;42.668;23.298;2022-11-22T03:56:04;7.45;;;4.10;;
35675;SDS011;21790;42.668;23.298;2022-11-22T03:58:30;9.70;;;4.97;;
35675;SDS011;21790;42.668;23.298;2022-11-22T04:00:56;6.88;;;4.50;;
35675;SDS011;21790;42.668;23.298;2022-11-22T04:03:21;7.03;;;4.25;;
35675;SDS011;21790;42.668;23.298;2022-11-22T04:05:47;8.20;;;4.85;;
35675;SDS011;21790;42.668;23.298;2022-11-22T04:08:13;7.40;;;4.10;;
35675;SDS011;21790;42.668;23.298;2022-11-22T04:10:38;7.78;;;4.10;;
35675;SDS011;21790;42.668;23.298;2022-11-22T04:13:04;9.30;;;4.68;;
35675;SDS011;21790;42.668;23.298;2022-11-22T04:15:29;6.30;;;4.10;;
35675;SDS011;21790;42.668;23.298;2022-11-22T04:17:55;11.32;;;4.18;;
35675;SDS011;21790;42.668;23.298;2022-11-22T04:23:07;7.68;;;4.05;;
35675;SDS011;21790;42.668;23.298;2022-11-22T04:25:35;8.73;;;4.90;;
35675;SDS011;21790;42.668;23.298;2022-11-22T04:28:06;6.88;;;4.20;;
35675;SDS011;21790;42.668;23.298;2022-11-22T04:30:32;10.50;;;4.47;;
35675;SDS011;21790;42.668;23.298;2022-11-22T04:33:17;5.90;;;3.75;;
35675;SDS011;21790;42.668;23.298;2022-11-22T04:35:43;7.68;;;4.50;;
35675;SDS011;21790;42.668;23.298;2022-11-22T04:38:09;8.02;;;4.22;;
35675;SDS011;21790;42.668;23.298;2022-11-22T04:40:36;10.50;;;4.60;;
35675;SDS011;21790;42.668;23.298;2022-11-22T04:43:02;6.40;;;4.35;;
35675;SDS011;21790;42.668;23.298;2022-11-22T04:45:47;8.02;;;4.05;;
35675;SDS011;21790;42.668;23.298;2022-11-22T04:48:12;6.78;;;4.00;;
35675;SDS011;21790;42.668;23.298;2022-11-22T04:50:38;6.55;;;3.83;;
35675;SDS011;21790;42.668;23.298;2022-11-22T04:53:23;7.68;;;4.25;;
35675;SDS011;21790;42.668;23.298;2022-11-22T04:55:49;8.45;;;4.22;;
35675;SDS011;21790;42.668;23.298;2022-11-22T04:58:15;8.90;;;4.55;;
35675;SDS011;21790;42.668;23.298;2022-11-22T05:00:41;9.70;;;4.65;;
35675;SDS011;21790;42.668;23.298;2022-11-22T05:03:07;7.10;;;4.05;;
35675;SDS011;21790;42.668;23.298;2022-11-22T05:05:36;5.18;;;4.10;;
35675;SDS011;21790;42.668;23.298;2022-11-22T05:08:04;7.63;;;4.75;;
35675;SDS011;21790;42.668;23.298;2022-11-22T05:10:30;7.68;;;4.82;;
35675;SDS011;21790;42.668;23.298;2022-11-22T05:13:29;7.50;;;5.47;;
35675;SDS011;21790;42.668;23.298;2022-11-22T05:16:03;18.02;;;7.55;;
35675;SDS011;21790;42.668;23.298;2022-11-22T05:18:30;21.98;;;8.88;;
35675;SDS011;21790;42.668;23.298;2022-11-22T05:20:56;9.45;;;6.00;;
35675;SDS011;21790;42.668;23.298;2022-11-22T05:23:22;10.45;;;5.43;;
35675;SDS011;21790;42.668;23.298;2022-11-22T05:26:08;10.02;;;5.38;;
35675;SDS011;21790;42.668;23.298;2022-11-22T05:28:35;7.40;;;4.65;;
35675;SDS011;21790;42.668;23.298;2022-11-22T05:31:11;8.48;;;5.28;;
35675;SDS011;21790;42.668;23.298;2022-11-22T05:33:43;11.63;;;5.53;;
35675;SDS011;21790;42.668;23.298;2022-11-22T05:36:17;8.57;;;5.25;;
35675;SDS011;21790;42.668;23.298;2022-11-22T05:38:44;8.68;;;5.57;;
35675;SDS011;21790;42.668;23.298;2022-11-22T05:41:11;10.35;;;5.68;;
35675;SDS011;21790;42.668;23.298;2022-11-22T05:43:40;13.43;;;6.60;;
35675;SDS011;21790;42.668;23.298;2022-11-22T05:46:16;10.25;;;6.15;;
35675;SDS011;21790;42.668;23.298;2022-11-22T05:48:47;12.05;;;7.20;;
35675;SDS011;21790;42.668;23.298;2022-11-22T05:51:16;15.32;;;5.88;;
35675;SDS011;21790;42.668;23.298;2022-11-22T05:53:44;10.98;;;6.78;;
35675;SDS011;21790;42.668;23.298;2022-11-22T05:56:10;11.68;;;6.15;;
35675;SDS011;21790;42.668;23.298;2022-11-22T05:58:41;11.15;;;6.70;;
35675;SDS011;21790;42.668;23.298;2022-11-22T06:01:09;10.60;;;7.05;;
35675;SDS011;21790;42.668;23.298;2022-11-22T06:03:39;12.05;;;6.95;;
35675;SDS011;21790;42.668;23.298;2022-11-22T06:06:05;22.83;;;7.88;;
35675;SDS011;21790;42.668;23.298;2022-11-22T06:08:34;15.27;;;7.63;;
35675;SDS011;21790;42.668;23.298;2022-11-22T06:11:04;13.13;;;7.00;;
35675;SDS011;21790;42.668;23.298;2022-11-22T06:13:36;10.52;;;7.10;;
35675;SDS011;21790;42.668;23.298;2022-11-22T06:16:04;15.32;;;7.57;;
35675;SDS011;21790;42.668;23.298;2022-11-22T06:18:30;12.70;;;6.80;;
35675;SDS011;21790;42.668;23.298;2022-11-22T06:21:02;14.48;;;7.53;;
35675;SDS011;21790;42.668;23.298;2022-11-22T06:23:32;12.32;;;7.63;;
35675;SDS011;21790;42.668;23.298;2022-11-22T06:25:58;12.05;;;7.70;;
35675;SDS011;21790;42.668;23.298;2022-11-22T06:28:27;13.43;;;8.40;;
35675;SDS011;21790;42.668;23.298;2022-11-22T06:30:59;17.98;;;8.98;;
35675;SDS011;21790;42.668;23.298;2022-11-22T06:33:35;15.00;;;8.15;;
35675;SDS011;21790;42.668;23.298;2022-11-22T06:36:09;14.70;;;7.95;;
35675;SDS011;21790;42.668;23.298;2022-11-22T06:38:39;16.23;;;8.38;;
35675;SDS011;21790;42.668;23.298;2022-11-22T06:41:06;12.95;;;7.88;;
35675;SDS011;21790;42.668;23.298;2022-11-22T06:43:34;14.25;;;6.90;;
35675;SDS011;21790;42.668;23.298;2022-11-22T06:46:01;14.63;;;7.55;;
35675;SDS011;21790;42.668;23.298;2022-11-22T06:48:30;11.95;;;6.88;;
35675;SDS011;21790;42.668;23.298;2022-11-22T06:50:59;11.02;;;7.20;;
35675;SDS011;21790;42.668;23.298;2022-11-22T06:53:26;10.70;;;6.93;;
35675;SDS011;21790;42.668;23.298;2022-11-22T06:58:30;14.20;;;7.65;;
35675;SDS011;21790;42.668;23.298;2022-11-22T07:01:06;11.10;;;6.47;;
35675;SDS011;21790;42.668;23.298;2022-11-22T07:03:34;8.70;;;5.63;;
35675;SDS011;21790;42.668;23.298;2022-11-22T07:06:00;11.75;;;6.72;;
35675;SDS011;21790;42.668;23.298;2022-11-22T07:08:27;11.27;;;5.80;;
35675;SDS011;21790;42.668;23.298;2022-11-22T07:10:52;9.85;;;6.15;;
35675;SDS011;21790;42.668;23.298;2022-11-22T07:13:18;9.48;;;6.00;;
35675;SDS011;21790;42.668;23.298;2022-11-22T07:15:52;12.07;;;5.97;;
35675;SDS011;21790;42.668;23.298;2022-11-22T07:18:20;11.70;;;6.15;;
35675;SDS011;21790;42.668;23.298;2022-11-22T07:20:45;12.57;;;6.38;;
35675;SDS011;21790;42.668;23.298;2022-11-22T07:23:13;11.52;;;6.50;;
35675;SDS011;21790;42.668;23.298;2022-11-22T07:25:46;10.70;;;6.53;;
35675;SDS011;21790;42.668;23.298;2022-11-22T07:28:12;13.93;;;6.95;;
35675;SDS011;21790;42.668;23.298;2022-11-22T07:30:38;11.52;;;6.03;;
35675;SDS011;21790;42.668;23.298;2022-11-22T07:33:04;10.77;;;6.60;;
35675;SDS011;21790;42.668;23.298;2022-11-22T07:35:30;11.70;;;5.95;;
35675;SDS011;21790;42.668;23.298;2022-11-22T07:37:55;14.05;;;6.35;;
35675;SDS011;21790;42.668;23.298;2022-11-22T07:40:21;10.88;;;6.45;;
35675;SDS011;21790;42.668;23.298;2022-11-22T07:42:46;14.38;;;7.93;;
35675;SDS011;21790;42.668;23.298;2022-11-22T07:45:12;10.15;;;6.57;;
35675;SDS011;21790;42.668;23.298;2022-11-22T07:47:39;12.88;;;6.35;;
35675;SDS011;21790;42.668;23.298;2022-11-22T07:50:05;10.98;;;6.50;;
35675;SDS011;21790;42.668;23.298;2022-11-22T07:52:31;15.90;;;7.45;;
35675;SDS011;21790;42.668;23.298;2022-11-22T07:54:56;12.07;;;6.85;;
35675;SDS011;21790;42.668;23.298;2022-11-22T07:57:22;17.40;;;7.68;;
35675;SDS011;21790;42.668;23.298;2022-11-22T07:59:48;16.83;;;8.20;;
35675;SDS011;21790;42.668;23.298;2022-11-22T08:02:13;17.08;;;7.78;;
35675;SDS011;21790;42.668;23.298;2022-11-22T08:04:39;12.40;;;7.40;;
35675;SDS011;21790;42.668;23.298;2022-11-22T08:07:04;11.80;;;6.57;;
35675;SDS011;21790;42.668;23.298;2022-11-22T08:09:30;12.52;;;6.57;;
35675;SDS011;21790;42.668;23.298;2022-11-22T08:11:55;11.18;;;7.05;;
35675;SDS011;21790;42.668;23.298;2022-11-22T08:14:21;11.18;;;6.40;;
35675;SDS011;21790;42.668;23.298;2022-11-22T08:16:47;10.82;;;6.57;;
35675;SDS011;21790;42.668;23.298;2022-11-22T08:19:13;11.55;;;6.82;;
35675;SDS011;21790;42.668;23.298;2022-11-22T08:21:46;10.43;;;6.22;;
35675;SDS011;21790;42.668;23.298;2022-11-22T08:24:12;11.48;;;6.30;;
35675;SDS011;21790;42.668;23.298;2022-11-22T08:26:38;10.88;;;6.68;;
35675;SDS011;21790;42.668;23.298;2022-11-22T08:29:05;13.15;;;5.93;;
35675;SDS011;21790;42.668;23.298;2022-11-22T08:31:31;12.85;;;6.65;;
35675;SDS011;21790;42.668;23.298;2022-11-22T08:33:57;13.02;;;6.38;;
35675;SDS011;21790;42.668;23.298;2022-11-22T08:36:24;15.57;;;7.50;;
35675;SDS011;21790;42.668;23.298;2022-11-22T08:38:52;12.00;;;6.80;;
35675;SDS011;21790;42.668;23.298;2022-11-22T08:41:18;11.35;;;6.57;;
35675;SDS011;21790;42.668;23.298;2022-11-22T08:43:44;20.15;;;8.05;;
35675;SDS011;21790;42.668;23.298;2022-11-22T08:46:10;15.23;;;7.53;;
35675;SDS011;21790;42.668;23.298;2022-11-22T08:48:36;17.95;;;7.47;;
35675;SDS011;21790;42.668;23.298;2022-11-22T08:51:04;13.82;;;7.50;;
35675;SDS011;21790;42.668;23.298;2022-11-22T08:53:32;16.27;;;7.45;;
35675;SDS011;21790;42.668;23.298;2022-11-22T08:56:00;13.85;;;7.45;;
35675;SDS011;21790;42.668;23.298;2022-11-22T08:58:30;16.13;;;7.80;;
35675;SDS011;21790;42.668;23.298;2022-11-22T09:01:07;15.10;;;7.47;;
35675;SDS011;21790;42.668;23.298;2022-11-22T09:03:37;12.95;;;7.10;;
35675;SDS011;21790;42.668;23.298;2022-11-22T09:06:03;13.15;;;6.68;;
35675;SDS011;21790;42.668;23.298;2022-11-22T09:08:32;13.85;;;4.82;;
35675;SDS011;21790;42.668;23.298;2022-11-22T09:11:04;14.80;;;8.23;;
35675;SDS011;21790;42.668;23.298;2022-11-22T09:13:38;16.08;;;8.20;;
35675;SDS011;21790;42.668;23.298;2022-11-22T09:16:06;13.40;;;7.28;;
35675;SDS011;21790;42.668;23.298;2022-11-22T09:18:34;9.88;;;6.38;;
35675;SDS011;21790;42.668;23.298;2022-11-22T09:21:00;13.90;;;6.78;;
35675;SDS011;21790;42.668;23.298;2022-11-22T09:23:31;15.45;;;6.82;;
35675;SDS011;21790;42.668;23.298;2022-11-22T09:26:01;13.05;;;7.53;;
35675;SDS011;21790;42.668;23.298;2022-11-22T09:28:27;16.33;;;8.13;;
35675;SDS011;21790;42.668;23.298;2022-11-22T09:31:00;18.38;;;8.73;;
35675;SDS011;21790;42.668;23.298;2022-11-22T09:33:27;18.27;;;8.68;;
35675;SDS011;21790;42.668;23.298;2022-11-22T09:38:35;11.93;;;7.22;;
35675;SDS011;21790;42.668;23.298;2022-11-22T09:49:11;10.95;;;7.20;;
35675;SDS011;21790;42.668;23.298;2022-11-22T09:54:26;12.07;;;7.00;;
35675;SDS011;21790;42.668;23.298;2022-11-22T09:57:14;15.32;;;7.15;;
35675;SDS011;21790;42.668;23.298;2022-11-22T09:59:44;12.57;;;7.43;;
35675;SDS011;21790;42.668;23.298;2022-11-22T10:02:34;13.85;;;6.82;;
35675;SDS011;21790;42.668;23.298;2022-11-22T10:05:11;13.38;;;7.38;;
35675;SDS011;21790;42.668;23.298;2022-11-22T10:07:53;10.98;;;6.38;;
35675;SDS011;21790;42.668;23.298;2022-11-22T10:10:31;13.18;;;7.18;;
35675;SDS011;21790;42.668;23.298;2022-11-22T10:13:06;10.65;;;7.07;;
35675;SDS011;21790;42.668;23.298;2022-11-22T10:15:43;16.02;;;6.82;;
35675;SDS011;21790;42.668;23.298;2022-11-22T10:21:22;11.40;;;6.65;;
35675;SDS011;21790;42.668;23.298;2022-11-22T10:23:49;11.43;;;7.07;;
35675;SDS011;21790;42.668;23.298;2022-11-22T10:42:26;15.88;;;7.15;;
35675;SDS011;21790;42.668;23.298;2022-11-22T10:49:05;10.35;;;5.80;;
35675;SDS011;21790;42.668;23.298;2022-11-22T10:54:20;11.07;;;6.68;;
35675;SDS011;21790;42.668;23.298;2022-11-22T10:56:53;16.40;;;7.30;;
35675;SDS011;21790;42.668;23.298;2022-11-22T11:05:18;12.40;;;5.88;;
35675;SDS011;21790;42.668;23.298;2022-11-22T11:07:51;10.77;;;6.43;;
35675;SDS011;21790;42.668;23.298;2022-11-22T11:10:19;12.00;;;6.88;;
35675;SDS011;21790;42.668;23.298;2022-11-22T11:13:22;14.45;;;7.15;;
35675;SDS011;21790;42.668;23.298;2022-11-22T11:15:49;13.13;;;6.43;;
35675;SDS011;21790;42.668;23.298;2022-11-22T11:18:18;12.32;;;5.88;;
35675;SDS011;21790;42.668;23.298;2022-11-22T11:20:49;13.50;;;6.45;;
35675;SDS011;21790;42.668;23.298;2022-11-22T11:23:16;13.18;;;6.53;;
35675;SDS011;21790;42.668;23.298;2022-11-22T11:25:42;12.35;;;6.88;;
35675;SDS011;21790;42.668;23.298;2022-11-22T11:28:17;11.20;;;6.07;;
35675;SDS011;21790;42.668;23.298;2022-11-22T11:30:54;10.93;;;6.13;;
35675;SDS011;21790;42.668;23.298;2022-11-22T11:33:24;13.23;;;7.03;;
35675;SDS011;21790;42.668;23.298;2022-11-22T11:35:52;11.20;;;6.88;;
35675;SDS011;21790;42.668;23.298;2022-11-22T11:41:15;10.55;;;6.53;;
35675;SDS011;21790;42.668;23.298;2022-11-22T11:43:58;15.70;;;5.93;;
35675;SDS011;21790;42.668;23.298;2022-11-22T11:46:28;14.43;;;6.93;;
35675;SDS011;21790;42.668;23.298;2022-11-22T11:51:40;13.02;;;7.28;;
35675;SDS011;21790;42.668;23.298;2022-11-22T11:54:14;13.45;;;7.10;;
35675;SDS011;21790;42.668;23.298;2022-11-22T11:59:20;13.73;;;7.40;;
35675;SDS011;21790;42.668;23.298;2022-11-22T12:05:24;17.85;;;5.10;;
35675;SDS011;21790;42.668;23.298;2022-11-22T12:10:00;12.15;;;6.93;;
35675;SDS011;21790;42.668;23.298;2022-11-22T12:15:17;13.05;;;6.95;;
35675;SDS011;21790;42.668;23.298;2022-11-22T12:20:26;13.80;;;6.75;;
35675;SDS011;21790;42.668;23.298;2022-11-22T12:23:03;12.00;;;7.03;;
35675;SDS011;21790;42.668;23.298;2022-11-22T12:25:38;19.02;;;8.35;;
35675;SDS011;21790;42.668;23.298;2022-11-22T12:28:26;71.63;;;23.38;;
35675;SDS011;21790;42.668;23.298;2022-11-22T12:30:56;23.25;;;9.57;;
35675;SDS011;21790;42.668;23.298;2022-11-22T12:33:52;15.73;;;7.53;;
35675;SDS011;21790;42.668;23.298;2022-11-22T12:36:41;22.27;;;9.70;;
35675;SDS011;21790;42.668;23.298;2022-11-22T12:39:29;17.10;;;8.95;;
35675;SDS011;21790;42.668;23.298;2022-11-22T12:42:07;21.73;;;8.75;;
35675;SDS011;21790;42.668;23.298;2022-11-22T12:44:37;18.35;;;8.57;;
35675;SDS011;21790;42.668;23.298;2022-11-22T12:47:10;17.48;;;7.90;;
35675;SDS011;21790;42.668;23.298;2022-11-22T12:55:47;14.07;;;8.50;;
35675;SDS011;21790;42.668;23.298;2022-11-22T12:57:56;14.57;;;7.10;;
35675;SDS011;21790;42.668;23.298;2022-11-22T13:04:34;15.77;;;8.13;;
35675;SDS011;21790;42.668;23.298;2022-11-22T13:09:34;16.20;;;8.32;;
35675;SDS011;21790;42.668;23.298;2022-11-22T13:12:08;18.13;;;9.43;;
35675;SDS011;21790;42.668;23.298;2022-11-22T13:17:17;19.98;;;9.40;;
35675;SDS011;21790;42.668;23.298;2022-11-22T13:19:45;20.05;;;9.93;;
35675;SDS011;21790;42.668;23.298;2022-11-22T13:25:28;15.80;;;9.02;;
35675;SDS011;21790;42.668;23.298;2022-11-22T13:27:52;25.58;;;11.32;;
35675;SDS011;21790;42.668;23.298;2022-11-22T13:30:24;25.30;;;11.65;;
35675;SDS011;21790;42.668;23.298;2022-11-22T13:32:52;25.58;;;12.30;;
35675;SDS011;21790;42.668;23.298;2022-11-22T13:38:05;19.38;;;10.05;;
35675;SDS011;21790;42.668;23.298;2022-11-22T13:40:40;21.20;;;11.02;;
35675;SDS011;21790;42.668;23.298;2022-11-22T13:51:07;24.73;;;10.48;;
35675;SDS011;21790;42.668;23.298;2022-11-22T13:53:37;22.00;;;10.85;;
35675;SDS011;21790;42.668;23.298;2022-11-22T14:01:07;19.40;;;10.10;;
35675;SDS011;21790;42.668;23.298;2022-11-22T14:17:20;26.85;;;12.45;;
35675;SDS011;21790;42.668;23.298;2022-11-22T14:34:12;20.55;;;9.73;;
35675;SDS011;21790;42.668;23.298;2022-11-22T14:36:39;19.00;;;10.20;;
35675;SDS011;21790;42.668;23.298;2022-11-22T14:47:45;23.70;;;11.23;;
35675;SDS011;21790;42.668;23.298;2022-11-22T14:52:51;29.48;;;11.90;;
35675;SDS011;21790;42.668;23.298;2022-11-22T14:55:21;21.65;;;11.05;;
35675;SDS011;21790;42.668;23.298;2022-11-22T14:57:50;18.58;;;9.20;;
35675;SDS011;21790;42.668;23.298;2022-11-22T15:00:23;19.48;;;9.98;;
35675;SDS011;21790;42.668;23.298;2022-11-22T15:05:44;18.88;;;7.90;;
35675;SDS011;21790;42.668;23.298;2022-11-22T15:11:32;16.52;;;6.43;;
35675;SDS011;21790;42.668;23.298;2022-11-22T15:17:10;15.82;;;7.22;;
35675;SDS011;21790;42.668;23.298;2022-11-22T15:19:41;13.80;;;7.35;;
35675;SDS011;21790;42.668;23.298;2022-11-22T15:22:14;17.48;;;7.38;;
35675;SDS011;21790;42.668;23.298;2022-11-22T15:24:48;15.07;;;6.70;;
35675;SDS011;21790;42.668;23.298;2022-11-22T15:32:42;15.13;;;7.18;;
35675;SDS011;21790;42.668;23.298;2022-11-22T15:35:16;18.75;;;7.20;;
35675;SDS011;21790;42.668;23.298;2022-11-22T15:37:53;20.85;;;8.57;;
35675;SDS011;21790;42.668;23.298;2022-11-22T15:40:20;25.38;;;13.55;;
35675;SDS011;21790;42.668;23.298;2022-11-22T15:42:56;34.15;;;15.57;;
35675;SDS011;21790;42.668;23.298;2022-11-22T15:45:27;32.47;;;17.90;;
35675;SDS011;21790;42.668;23.298;2022-11-22T15:47:56;40.00;;;17.50;;
35675;SDS011;21790;42.668;23.298;2022-11-22T15:50:25;41.80;;;18.35;;
35675;SDS011;21790;42.668;23.298;2022-11-22T15:52:52;38.08;;;17.98;;
35675;SDS011;21790;42.668;23.298;2022-11-22T15:55:20;41.10;;;18.50;;
35675;SDS011;21790;42.668;23.298;2022-11-22T15:57:51;39.47;;;18.35;;
35675;SDS011;21790;42.668;23.298;2022-11-22T16:00:20;21.52;;;9.23;;
35675;SDS011;21790;42.668;23.298;2022-11-22T16:02:52;26.58;;;12.35;;
35675;SDS011;21790;42.668;23.298;2022-11-22T16:05:30;25.40;;;11.70;;
35675;SDS011;21790;42.668;23.298;2022-11-22T16:07:59;23.80;;;11.90;;
35675;SDS011;21790;42.668;23.298;2022-11-22T16:10:33;23.25;;;11.95;;
35675;SDS011;21790;42.668;23.298;2022-11-22T16:18:38;14.95;;;7.25;;
35675;SDS011;21790;42.668;23.298;2022-11-22T16:21:26;9.80;;;6.32;;
35675;SDS011;21790;42.668;23.298;2022-11-22T16:24:06;11.43;;;5.88;;
35675;SDS011;21790;42.668;23.298;2022-11-22T16:26:40;10.30;;;5.25;;
35675;SDS011;21790;42.668;23.298;2022-11-22T16:32:11;13.13;;;5.28;;
35675;SDS011;21790;42.668;23.298;2022-11-22T16:34:41;13.60;;;5.28;;
35675;SDS011;21790;42.668;23.298;2022-11-22T16:39:55;10.25;;;4.88;;
35675;SDS011;21790;42.668;23.298;2022-11-22T16:42:22;9.50;;;5.45;;
35675;SDS011;21790;42.668;23.298;2022-11-22T16:44:49;13.05;;;7.97;;
35675;SDS011;21790;42.668;23.298;2022-11-22T16:47:16;17.00;;;8.27;;
35675;SDS011;21790;42.668;23.298;2022-11-22T16:49:46;19.92;;;9.50;;
35675;SDS011;21790;42.668;23.298;2022-11-22T16:52:12;15.85;;;9.18;;
35675;SDS011;21790;42.668;23.298;2022-11-22T16:54:40;21.35;;;10.63;;
35675;SDS011;21790;42.668;23.298;2022-11-22T16:57:13;20.75;;;10.77;;
35675;SDS011;21790;42.668;23.298;2022-11-22T16:59:41;16.70;;;9.70;;
35675;SDS011;21790;42.668;23.298;2022-11-22T17:02:10;8.73;;;5.43;;
35675;SDS011;21790;42.668;23.298;2022-11-22T17:04:40;7.95;;;4.30;;
35675;SDS011;21790;42.668;23.298;2022-11-22T17:07:09;6.65;;;3.88;;
35675;SDS011;21790;42.668;23.298;2022-11-22T17:09:35;6.40;;;3.58;;
35675;SDS011;21790;42.668;23.298;2022-11-22T17:12:00;7.22;;;3.38;;
35675;SDS011;21790;42.668;23.298;2022-11-22T17:14:27;7.45;;;3.80;;
35675;SDS011;21790;42.668;23.298;2022-11-22T17:16:54;7.97;;;4.65;;
35675;SDS011;21790;42.668;23.298;2022-11-22T17:19:20;20.27;;;13.27;;
35675;SDS011;21790;42.668;23.298;2022-11-22T17:21:46;9.00;;;4.10;;
35675;SDS011;21790;42.668;23.298;2022-11-22T17:24:15;8.55;;;4.57;;
35675;SDS011;21790;42.668;23.298;2022-11-22T17:26:50;8.07;;;3.92;;
35675;SDS011;21790;42.668;23.298;2022-11-22T17:29:15;10.73;;;4.90;;
35675;SDS011;21790;42.668;23.298;2022-11-22T17:31:42;11.93;;;4.97;;
35675;SDS011;21790;42.668;23.298;2022-11-22T17:34:10;11.95;;;6.28;;